createdAt,value
2022-11-16T00:01:51.457Z,9.12
2022-11-16T00:04:18.731Z,9.04
2022-11-16T00:06:46.913Z,9.12
2022-11-16T00:09:23.103Z,9.11
2022-11-16T00:11:53.415Z,9.09
2022-11-16T00:14:22.264Z,9.11
2022-11-16T00:16:49.425Z,9.08
2022-11-16T00:19:16.713Z,9.12
2022-11-16T00:21:43.944Z,9.07
2022-11-16T00:24:14.227Z,9.04
2022-11-16T00:26:41.869Z,9.05
2022-11-16T00:29:16.992Z,9.01
2022-11-16T00:31:44.964Z,9.02
2022-11-16T00:34:13.048Z,8.94
2022-11-16T00:36:40.343Z,8.95
2022-11-16T00:39:07.702Z,8.95
2022-11-16T00:41:34.808Z,8.94
2022-11-16T00:44:02.252Z,8.93
2022-11-16T00:46:29.494Z,8.99
2022-11-16T00:48:57.109Z,8.95
2022-11-16T00:51:24.685Z,8.89
2022-11-16T00:53:52.197Z,8.91
2022-11-16T00:56:19.826Z,8.91
2022-11-16T00:58:46.891Z,8.92
2022-11-16T01:01:14.596Z,8.85
2022-11-16T01:03:42.252Z,8.86
2022-11-16T01:06:11.910Z,8.73
2022-11-16T01:08:40.789Z,8.84
2022-11-16T01:11:27.546Z,8.78
2022-11-16T01:13:55.873Z,8.86
2022-11-16T01:16:24.248Z,8.86
2022-11-16T01:18:53.536Z,8.88
2022-11-16T01:21:21.507Z,8.85
2022-11-16T01:23:49.427Z,8.84
2022-11-16T01:26:16.988Z,8.83
2022-11-16T01:28:44.569Z,8.88
2022-11-16T01:31:13.110Z,8.87
2022-11-16T01:33:41.252Z,8.97
2022-11-16T01:36:16.499Z,8.95
2022-11-16T01:38:45.875Z,8.97
2022-11-16T01:41:17.451Z,8.96
2022-11-16T01:44:15.533Z,8.96
2022-11-16T01:46:53.346Z,8.98
2022-11-16T01:49:24.627Z,8.98
2022-11-16T01:51:59.667Z,9.06
2022-11-16T01:54:31.381Z,9.07
2022-11-16T01:57:03.942Z,9.11
2022-11-16T01:59:48.529Z,9.09
2022-11-16T02:02:19.865Z,9.10
2022-11-16T02:04:49.400Z,9.13
2022-11-16T02:08:04.609Z,9.28
2022-11-16T02:10:35.178Z,9.33
2022-11-16T02:13:30.333Z,9.30
2022-11-16T02:16:19.375Z,9.33
2022-11-16T02:18:57.123Z,9.38
2022-11-16T02:21:42.911Z,9.30
2022-11-16T02:24:16.006Z,9.40
2022-11-16T02:26:49.365Z,9.41
2022-11-16T02:29:31.872Z,9.40
2022-11-16T02:32:02.590Z,9.42
2022-11-16T02:34:37.570Z,9.41
2022-11-16T02:37:08.164Z,9.46
2022-11-16T02:39:39.237Z,9.67
2022-11-16T02:42:11.584Z,9.66
2022-11-16T02:44:45.205Z,9.53
2022-11-16T02:47:20.860Z,9.62
2022-11-16T02:49:56.608Z,9.59
2022-11-16T02:52:24.864Z,9.58
2022-11-16T02:54:52.527Z,9.66
2022-11-16T02:58:10.246Z,9.72
2022-11-16T03:01:09.030Z,9.73
2022-11-16T03:04:05.728Z,9.70
2022-11-16T03:06:37.714Z,9.74
2022-11-16T03:09:31.696Z,9.68
2022-11-16T03:12:02.109Z,9.69
2022-11-16T03:14:36.894Z,9.69
2022-11-16T03:17:09.387Z,9.69
2022-11-16T03:19:46.695Z,9.67
2022-11-16T03:22:28.900Z,9.73
2022-11-16T03:24:56.242Z,9.71
2022-11-16T03:28:11.552Z,9.69
2022-11-16T03:30:45.279Z,9.64
2022-11-16T03:33:24.846Z,9.66
2022-11-16T03:36:11.042Z,9.72
2022-11-16T03:38:41.641Z,9.63
2022-11-16T03:41:11.687Z,9.58
2022-11-16T03:43:42.784Z,9.55
2022-11-16T03:46:10.820Z,9.58
2022-11-16T03:48:40.657Z,9.58
2022-11-16T03:51:14.525Z,9.55
2022-11-16T03:53:42.959Z,9.58
2022-11-16T03:56:12.373Z,9.57
2022-11-16T03:58:39.822Z,9.59
2022-11-16T04:01:07.418Z,9.59
2022-11-16T04:03:34.741Z,9.54
2022-11-16T04:06:20.926Z,9.53
2022-11-16T04:09:07.622Z,9.53
2022-11-16T04:11:56.608Z,9.49
2022-11-16T04:14:44.259Z,9.48
2022-11-16T04:17:35.143Z,9.39
2022-11-16T04:20:21.877Z,9.39
2022-11-16T04:23:23.477Z,9.37
2022-11-16T04:25:52.484Z,9.36
2022-11-16T04:28:31.720Z,9.28
2022-11-16T04:31:23.315Z,9.32
2022-11-16T04:34:22.841Z,9.34
2022-11-16T04:37:12.303Z,9.37
2022-11-16T04:39:41.013Z,9.43
2022-11-16T04:42:17.660Z,9.46
2022-11-16T04:45:05.405Z,9.44
2022-11-16T04:47:53.803Z,9.41
2022-11-16T04:50:25.140Z,9.54
2022-11-16T04:52:52.365Z,9.51
2022-11-16T04:55:20.313Z,9.42
2022-11-16T04:57:49.127Z,9.42
2022-11-16T05:00:20.570Z,9.41
2022-11-16T05:02:50.722Z,9.45
2022-11-16T05:05:28.964Z,9.49
2022-11-16T05:07:58.865Z,9.45
2022-11-16T05:10:29.286Z,9.41
2022-11-16T05:12:57.829Z,9.47
2022-11-16T05:15:26.183Z,9.47
2022-11-16T05:17:56.156Z,9.46
2022-11-16T05:20:43.936Z,9.55
2022-11-16T05:23:32.493Z,9.54
2022-11-16T05:26:05.991Z,9.55
2022-11-16T05:28:34.956Z,9.59
2022-11-16T05:31:04.808Z,9.64
2022-11-16T05:33:33.538Z,9.60
2022-11-16T05:36:00.839Z,9.63
2022-11-16T05:38:28.068Z,9.63
2022-11-16T05:40:58.548Z,9.74
2022-11-16T05:43:26.024Z,9.77
2022-11-16T05:46:02.373Z,9.78
2022-11-16T05:48:29.693Z,9.90
2022-11-16T05:50:59.714Z,9.97
2022-11-16T05:53:29.082Z,10.03
2022-11-16T05:55:57.793Z,10.03
2022-11-16T05:58:25.032Z,10.05
2022-11-16T06:00:53.324Z,10.18
2022-11-16T06:03:20.792Z,10.28
2022-11-16T06:05:48.916Z,10.23
2022-11-16T06:08:18.606Z,10.18
2022-11-16T06:10:46.556Z,10.18
2022-11-16T06:13:13.993Z,10.35
2022-11-16T06:15:41.701Z,10.41
2022-11-16T06:18:10.212Z,10.39
2022-11-16T06:20:40.313Z,10.30
2022-11-16T06:23:08.217Z,10.39
2022-11-16T06:25:39.644Z,10.34
2022-11-16T06:28:08.451Z,10.25
2022-11-16T06:30:38.338Z,10.26
2022-11-16T06:33:06.953Z,10.31
2022-11-16T06:35:34.443Z,10.39
2022-11-16T06:38:02.833Z,10.33
2022-11-16T06:40:30.739Z,10.38
2022-11-16T06:42:59.937Z,10.33
2022-11-16T06:45:27.786Z,10.19
2022-11-16T06:47:58.299Z,10.33
2022-11-16T06:50:27.165Z,10.30
2022-11-16T06:52:55.409Z,10.29
2022-11-16T06:55:23.753Z,10.24
2022-11-16T06:57:51.266Z,10.20
2022-11-16T07:00:18.692Z,10.18
2022-11-16T07:02:46.819Z,10.19
2022-11-16T07:05:17.493Z,10.16
2022-11-16T07:07:46.387Z,10.15
2022-11-16T07:10:14.161Z,10.14
2022-11-16T07:12:43.122Z,10.15
2022-11-16T07:15:11.130Z,10.11
2022-11-16T07:17:43.157Z,10.23
2022-11-16T07:20:12.341Z,10.23
2022-11-16T07:22:40.778Z,10.29
2022-11-16T07:25:12.959Z,10.16
2022-11-16T07:27:40.044Z,10.26
2022-11-16T07:30:08.090Z,10.31
2022-11-16T07:33:03.770Z,10.33
2022-11-16T07:36:10.212Z,10.21
2022-11-16T07:38:38.618Z,10.41
2022-11-16T07:41:07.877Z,10.45
2022-11-16T07:43:37.980Z,10.47
2022-11-16T07:49:13.876Z,10.66
2022-11-16T07:51:59.546Z,10.73
2022-11-16T07:55:06.122Z,10.78
2022-11-16T07:57:34.621Z,10.91
2022-11-16T08:00:06.772Z,11.08
2022-11-16T08:02:40.771Z,11.12
2022-11-16T08:05:13.494Z,11.17
2022-11-16T08:07:41.125Z,11.17
2022-11-16T08:10:08.984Z,11.28
2022-11-16T08:12:36.313Z,11.41
2022-11-16T08:15:03.789Z,11.43
2022-11-16T08:17:31.330Z,11.65
2022-11-16T08:19:59.390Z,11.70
2022-11-16T08:22:26.504Z,11.65
2022-11-16T08:24:53.763Z,11.76
2022-11-16T08:27:20.910Z,11.80
2022-11-16T08:29:52.676Z,11.73
2022-11-16T08:32:21.420Z,11.88
2022-11-16T08:34:48.808Z,11.86
2022-11-16T08:37:16.404Z,11.81
2022-11-16T08:39:45.157Z,11.92
2022-11-16T08:42:12.523Z,11.96
2022-11-16T08:44:43.905Z,11.95
2022-11-16T08:47:14.354Z,12.06
2022-11-16T08:49:49.694Z,12.04
2022-11-16T08:52:18.901Z,12.10
2022-11-16T08:54:46.630Z,12.02
2022-11-16T08:57:14.062Z,12.04
2022-11-16T08:59:43.207Z,12.05
2022-11-16T09:02:13.709Z,12.13
2022-11-16T09:04:41.221Z,12.13
2022-11-16T09:07:08.450Z,12.20
2022-11-16T09:09:36.514Z,12.19
2022-11-16T09:12:03.737Z,12.45
2022-11-16T09:14:30.933Z,12.49
2022-11-16T09:16:58.033Z,12.49
2022-11-16T09:19:25.229Z,12.68
2022-11-16T09:21:52.531Z,12.68
2022-11-16T09:24:19.772Z,12.78
2022-11-16T09:26:46.928Z,12.88
2022-11-16T09:29:15.717Z,12.95
2022-11-16T09:31:44.377Z,12.98
2022-11-16T09:34:11.657Z,13.04
2022-11-16T09:36:38.692Z,12.96
2022-11-16T09:41:57.456Z,12.97
2022-11-16T09:44:24.838Z,13.08
2022-11-16T09:46:58.435Z,13.16
2022-11-16T09:49:38.535Z,13.19
2022-11-16T09:52:11.296Z,13.24
2022-11-16T09:54:44.614Z,13.28
2022-11-16T09:57:16.834Z,13.28
2022-11-16T09:59:55.455Z,13.44
2022-11-16T10:03:04.892Z,13.43
2022-11-16T10:05:39.268Z,13.45
2022-11-16T10:08:26.562Z,13.47
2022-11-16T10:10:57.912Z,13.43
2022-11-16T10:13:37.336Z,13.41
2022-11-16T10:16:32.368Z,13.48
2022-11-16T10:19:18.042Z,13.60
2022-11-16T10:22:03.461Z,13.60
2022-11-16T10:25:01.338Z,13.61
2022-11-16T10:27:38.435Z,13.61
2022-11-16T10:30:22.850Z,13.65
2022-11-16T10:32:59.895Z,13.54
2022-11-16T10:35:36.541Z,13.47
2022-11-16T10:38:15.785Z,13.58
2022-11-16T10:40:47.394Z,13.53
2022-11-16T10:43:20.892Z,13.50
2022-11-16T10:45:52.626Z,13.47
2022-11-16T10:48:39.958Z,13.51
2022-11-16T10:51:09.541Z,13.44
2022-11-16T10:53:38.969Z,13.44
2022-11-16T10:56:29.022Z,13.39
2022-11-16T10:59:06.538Z,13.44
2022-11-16T11:01:41.248Z,13.43
2022-11-16T11:04:30.087Z,13.45
2022-11-16T11:07:16.153Z,13.59
2022-11-16T11:09:43.821Z,13.64
2022-11-16T11:12:32.651Z,13.45
2022-11-16T11:15:11.754Z,13.62
2022-11-16T11:17:41.818Z,13.60
2022-11-16T11:20:15.277Z,13.58
2022-11-16T11:22:52.669Z,13.64
2022-11-16T11:25:27.402Z,13.74
2022-11-16T11:28:34.831Z,13.61
2022-11-16T11:31:26.208Z,13.71
2022-11-16T11:34:09.971Z,13.74
2022-11-16T11:36:43.349Z,13.87
2022-11-16T11:39:13.652Z,13.73
2022-11-16T11:41:44.507Z,13.88
2022-11-16T11:44:18.243Z,13.98
2022-11-16T11:50:19.933Z,14.01
2022-11-16T11:53:17.433Z,14.14
2022-11-16T11:55:44.523Z,14.36
2022-11-16T11:58:19.769Z,14.33
2022-11-16T12:01:19.543Z,14.45
2022-11-16T12:03:50.909Z,14.59
2022-11-16T12:06:51.468Z,14.75
2022-11-16T12:09:18.780Z,14.81
2022-11-16T12:11:58.081Z,15.00
2022-11-16T12:14:58.812Z,15.07
2022-11-16T12:17:44.475Z,15.05
2022-11-16T12:20:26.801Z,15.07
2022-11-16T12:23:21.781Z,14.94
2022-11-16T12:25:57.981Z,14.93
2022-11-16T12:29:01.309Z,14.89
2022-11-16T12:31:36.694Z,14.89
2022-11-16T12:34:37.938Z,15.02
2022-11-16T12:37:43.714Z,14.99
2022-11-16T12:40:23.009Z,15.04
2022-11-16T12:43:04.187Z,15.04
2022-11-16T12:45:50.064Z,15.08
2022-11-16T12:48:36.775Z,15.01
2022-11-16T12:51:31.560Z,15.14
2022-11-16T12:54:18.265Z,15.16
2022-11-16T12:57:04.309Z,15.23
2022-11-16T12:59:51.561Z,15.27
2022-11-16T13:02:46.695Z,15.35
2022-11-16T13:05:19.874Z,15.45
2022-11-16T13:08:07.021Z,15.42
2022-11-16T13:10:37.331Z,15.32
2022-11-16T13:13:35.508Z,15.33
2022-11-16T13:16:02.406Z,15.35
2022-11-16T13:18:32.018Z,15.30
2022-11-16T13:21:08.441Z,15.40
2022-11-16T13:24:00.731Z,15.45
2022-11-16T13:26:39.521Z,15.36
2022-11-16T13:29:15.858Z,15.33
2022-11-16T13:32:06.201Z,15.32
2022-11-16T13:34:35.675Z,15.33
2022-11-16T13:37:34.736Z,15.33
2022-11-16T13:40:01.950Z,15.30
2022-11-16T13:42:30.997Z,15.29
2022-11-16T13:45:16.324Z,15.15
2022-11-16T13:47:56.897Z,15.35
2022-11-16T13:50:38.981Z,15.27
2022-11-16T13:56:09.851Z,15.25
2022-11-16T13:58:44.329Z,15.22
2022-11-16T14:01:16.456Z,15.06
2022-11-16T14:03:51.799Z,15.04
2022-11-16T14:06:25.214Z,15.17
2022-11-16T14:08:54.049Z,15.27
2022-11-16T14:11:41.498Z,15.28
2022-11-16T14:14:13.961Z,15.15
2022-11-16T14:16:45.578Z,15.09
2022-11-16T14:19:57.900Z,15.17
2022-11-16T14:23:01.105Z,15.16
2022-11-16T14:25:55.944Z,15.16
2022-11-16T14:28:38.551Z,15.13
2022-11-16T14:31:28.121Z,15.15
2022-11-16T14:33:59.111Z,15.06
2022-11-16T14:36:40.997Z,15.08
2022-11-16T14:39:27.279Z,15.05
2022-11-16T14:41:57.159Z,15.13
2022-11-16T14:44:28.052Z,15.22
2022-11-16T14:46:56.362Z,15.25
2022-11-16T14:49:26.633Z,15.13
2022-11-16T14:52:01.811Z,15.15
2022-11-16T14:54:48.208Z,15.05
2022-11-16T14:57:24.004Z,14.94
2022-11-16T15:00:13.225Z,15.06
2022-11-16T15:02:41.344Z,14.99
2022-11-16T15:05:17.055Z,14.92
2022-11-16T15:07:46.409Z,14.91
2022-11-16T15:10:22.992Z,14.87
2022-11-16T15:12:52.152Z,14.90
2022-11-16T15:15:24.393Z,14.69
2022-11-16T15:18:00.583Z,14.73
2022-11-16T15:20:30.396Z,14.64
2022-11-16T15:22:59.806Z,14.60
2022-11-16T15:25:36.125Z,14.65
2022-11-16T15:28:06.005Z,14.50
2022-11-16T15:30:37.450Z,14.51
2022-11-16T15:33:11.357Z,14.55
2022-11-16T15:35:39.281Z,14.45
2022-11-16T15:38:32.600Z,14.46
2022-11-16T15:41:04.639Z,14.41
2022-11-16T15:43:41.080Z,14.27
2022-11-16T15:46:15.171Z,14.27
2022-11-16T15:48:43.350Z,14.20
2022-11-16T15:51:11.010Z,14.21
2022-11-16T15:53:43.709Z,14.18
2022-11-16T15:56:13.649Z,14.05
2022-11-16T15:58:42.079Z,14.12
2022-11-16T16:01:12.543Z,14.18
2022-11-16T16:03:46.425Z,14.01
2022-11-16T16:06:16.796Z,14.05
2022-11-16T16:08:45.427Z,14.00
2022-11-16T16:11:27.935Z,13.95
2022-11-16T16:14:03.328Z,13.92
2022-11-16T16:16:40.290Z,13.85
2022-11-16T16:19:36.159Z,13.87
2022-11-16T16:22:05.765Z,13.88
2022-11-16T16:24:46.986Z,13.79
2022-11-16T16:27:19.813Z,13.83
2022-11-16T16:29:48.993Z,13.70
2022-11-16T16:32:26.692Z,13.74
2022-11-16T16:34:59.367Z,13.60
2022-11-16T16:37:28.768Z,13.67
2022-11-16T16:39:56.209Z,13.58
2022-11-16T16:42:23.370Z,13.57
2022-11-16T16:44:51.261Z,13.60
2022-11-16T16:47:21.031Z,13.44
2022-11-16T16:49:49.249Z,13.66
2022-11-16T16:52:17.256Z,13.62
2022-11-16T16:54:44.950Z,13.58
2022-11-16T16:57:14.653Z,13.54
2022-11-16T16:59:42.778Z,13.50
2022-11-16T17:02:14.550Z,13.51
2022-11-16T17:04:43.725Z,13.46
2022-11-16T17:07:11.176Z,13.44
2022-11-16T17:09:42.236Z,13.40
2022-11-16T17:12:11.521Z,13.45
2022-11-16T17:14:38.707Z,13.49
2022-11-16T17:17:06.214Z,13.42
2022-11-16T17:19:33.763Z,13.43
2022-11-16T17:22:00.971Z,13.48
2022-11-16T17:24:28.130Z,13.46
2022-11-16T17:26:55.987Z,13.46
2022-11-16T17:29:23.265Z,13.48
2022-11-16T17:31:50.602Z,13.43
2022-11-16T17:34:17.968Z,13.39
2022-11-16T17:36:45.370Z,13.37
2022-11-16T17:39:13.043Z,13.39
2022-11-16T17:41:40.060Z,13.27
2022-11-16T17:44:07.581Z,13.23
2022-11-16T17:46:35.067Z,13.21
2022-11-16T17:49:02.436Z,13.15
2022-11-16T17:51:44.701Z,13.16
2022-11-16T17:54:21.276Z,13.21
2022-11-16T17:56:49.162Z,13.26
2022-11-16T17:59:16.635Z,13.19
2022-11-16T18:01:44.129Z,13.33
2022-11-16T18:04:11.486Z,13.26
2022-11-16T18:06:39.858Z,13.23
2022-11-16T18:09:07.575Z,13.32
2022-11-16T18:11:35.345Z,13.34
2022-11-16T18:14:06.535Z,13.22
2022-11-16T18:16:34.789Z,13.27
2022-11-16T18:19:06.368Z,13.16
2022-11-16T18:21:40.609Z,13.29
2022-11-16T18:24:09.018Z,13.21
2022-11-16T18:26:36.813Z,13.24
2022-11-16T18:29:04.539Z,13.23
2022-11-16T18:31:33.334Z,13.26
2022-11-16T18:34:03.680Z,13.22
2022-11-16T18:36:31.013Z,13.21
2022-11-16T18:38:58.530Z,13.27
2022-11-16T18:41:28.475Z,13.30
2022-11-16T18:43:58.277Z,13.34
2022-11-16T18:46:28.142Z,13.39
2022-11-16T18:48:56.608Z,13.33
2022-11-16T18:51:26.279Z,13.10
2022-11-16T18:53:53.645Z,13.30
2022-11-16T18:56:21.182Z,13.24
2022-11-16T18:58:51.394Z,13.23
2022-11-16T19:01:21.242Z,13.19
2022-11-16T19:03:48.600Z,13.18
2022-11-16T19:06:18.000Z,13.17
2022-11-16T19:08:51.823Z,13.18
2022-11-16T19:11:21.533Z,13.13
2022-11-16T19:13:56.055Z,13.21
2022-11-16T19:16:24.855Z,13.21
2022-11-16T19:18:52.510Z,13.16
2022-11-16T19:21:20.709Z,13.25
2022-11-16T19:23:50.332Z,13.22
2022-11-16T19:26:19.279Z,13.22
2022-11-16T19:28:49.164Z,13.28
2022-11-16T19:31:18.243Z,13.27
2022-11-16T19:33:46.403Z,13.21
2022-11-16T19:36:16.173Z,13.18
2022-11-16T19:38:44.660Z,13.13
2022-11-16T19:41:14.076Z,13.09
2022-11-16T19:43:41.981Z,13.22
2022-11-16T19:46:17.839Z,13.22
2022-11-16T19:48:46.382Z,13.02
2022-11-16T19:51:16.635Z,13.36
2022-11-16T19:53:44.563Z,13.24
2022-11-16T19:56:14.895Z,13.13
2022-11-16T19:58:42.782Z,13.17
2022-11-16T20:01:36.782Z,13.31
2022-11-16T20:04:05.300Z,13.11
2022-11-16T20:06:39.268Z,13.30
2022-11-16T20:09:10.191Z,13.30
2022-11-16T20:11:39.808Z,13.25
2022-11-16T20:14:10.454Z,13.08
2022-11-16T20:16:42.509Z,13.34
2022-11-16T20:19:10.702Z,13.38
2022-11-16T20:21:42.818Z,13.26
2022-11-16T20:24:13.564Z,13.39
2022-11-16T20:26:46.884Z,13.40
2022-11-16T20:29:18.004Z,13.58
2022-11-16T20:31:46.693Z,13.58
2022-11-16T20:34:18.218Z,13.53
2022-11-16T20:36:47.462Z,13.47
2022-11-16T20:39:17.046Z,13.70
2022-11-16T20:41:44.917Z,13.79
2022-11-16T20:44:16.776Z,13.89
2022-11-16T20:46:45.486Z,14.01
2022-11-16T20:49:13.123Z,14.03
2022-11-16T20:51:41.431Z,14.00
2022-11-16T20:54:08.774Z,14.09
2022-11-16T20:56:36.455Z,14.09
2022-11-16T20:59:03.842Z,14.12
2022-11-16T21:01:34.058Z,14.04
2022-11-16T21:04:04.251Z,14.02
2022-11-16T21:06:32.676Z,14.00
2022-11-16T21:09:00.802Z,14.02
2022-11-16T21:11:30.218Z,14.07
2022-11-16T21:14:16.626Z,13.83
2022-11-16T21:16:44.872Z,13.99
2022-11-16T21:19:12.790Z,13.69
2022-11-16T21:21:41.360Z,14.04
2022-11-16T21:24:10.034Z,14.06
2022-11-16T21:26:38.272Z,14.08
2022-11-16T21:29:06.052Z,14.05
2022-11-16T21:31:36.557Z,14.04
2022-11-16T21:34:05.493Z,14.03
2022-11-16T21:36:33.491Z,13.88
2022-11-16T21:39:01.306Z,13.81
2022-11-16T21:41:28.934Z,13.71
2022-11-16T21:43:56.519Z,13.67
2022-11-16T21:46:27.081Z,13.77
2022-11-16T21:48:57.064Z,13.72
2022-11-16T21:51:34.127Z,13.53
2022-11-16T21:54:01.399Z,13.64
2022-11-16T21:56:28.796Z,13.62
2022-11-16T21:58:55.963Z,13.59
2022-11-16T22:01:24.099Z,13.63
2022-11-16T22:04:12.795Z,13.56
2022-11-16T22:06:58.265Z,13.53
2022-11-16T22:09:25.698Z,13.56
2022-11-16T22:11:52.890Z,13.44
2022-11-16T22:14:20.147Z,13.47
2022-11-16T22:16:47.741Z,13.53
2022-11-16T22:19:15.067Z,13.50
2022-11-16T22:21:42.125Z,13.58
2022-11-16T22:24:09.389Z,13.45
2022-11-16T22:26:38.570Z,13.43
2022-11-16T22:29:06.068Z,13.40
2022-11-16T22:31:33.332Z,13.42
2022-11-16T22:34:00.569Z,13.47
2022-11-16T22:36:27.763Z,13.40
2022-11-16T22:38:57.444Z,13.17
2022-11-16T22:41:24.820Z,13.34
2022-11-16T22:43:52.105Z,13.29
2022-11-16T22:46:19.657Z,13.30
2022-11-16T22:48:48.084Z,13.30
2022-11-16T22:51:15.126Z,13.14
2022-11-16T22:53:42.473Z,13.32
2022-11-16T22:56:10.891Z,13.31
2022-11-16T22:58:40.363Z,13.27
2022-11-16T23:01:09.660Z,13.27
2022-11-16T23:03:38.538Z,13.22
2022-11-16T23:06:07.166Z,13.23
2022-11-16T23:08:35.629Z,13.18
2022-11-16T23:11:33.319Z,13.22
2022-11-16T23:14:22.077Z,13.12
2022-11-16T23:16:49.981Z,13.26
2022-11-16T23:19:37.761Z,13.23
2022-11-16T23:22:24.445Z,13.27
2022-11-16T23:25:10.277Z,13.03
2022-11-16T23:27:40.957Z,13.25
2022-11-16T23:30:12.820Z,13.21
2022-11-16T23:32:41.876Z,13.12
2022-11-16T23:35:10.698Z,13.15
2022-11-16T23:37:55.074Z,13.04
2022-11-16T23:40:25.314Z,13.04
2022-11-16T23:43:14.925Z,12.96
2022-11-16T23:45:43.236Z,13.09
2022-11-16T23:48:12.193Z,12.94
2022-11-16T23:50:39.600Z,12.89
2022-11-16T23:53:08.475Z,12.97
2022-11-16T23:55:38.595Z,12.93
2022-11-16T23:58:06.884Z,12.86
